createdAt,value
2019-05-22T00:00:59.586Z,25.83
2019-05-22T00:03:34.770Z,24.77
2019-05-22T00:06:04.293Z,25.27
2019-05-22T00:08:35.642Z,25.43
2019-05-22T00:11:08.150Z,25.83
2019-05-22T00:13:39.793Z,26.03
2019-05-22T00:16:09.005Z,27.23
2019-05-22T00:18:39.294Z,25.90
2019-05-22T00:21:09.115Z,26.13
2019-05-22T00:23:40.054Z,27.07
2019-05-22T00:26:10.507Z,27.73
2019-05-22T00:28:40.065Z,27.37
2019-05-22T00:31:09.225Z,27.27
2019-05-22T00:33:39.105Z,27.77
2019-05-22T00:36:10.301Z,26.93
2019-05-22T00:38:39.388Z,27.97
2019-05-22T00:41:11.224Z,27.67
2019-05-22T00:43:41.947Z,29.43
2019-05-22T00:46:15.844Z,27.80
2019-05-22T00:48:47.279Z,29.03
2019-05-22T00:51:34.341Z,28.63
2019-05-22T00:54:36.358Z,28.20
2019-05-22T00:57:26.948Z,28.43
2019-05-22T01:00:06.587Z,27.07
2019-05-22T01:02:38.914Z,29.17
2019-05-22T02:32:25.684Z,32.00
2019-05-22T02:35:12.994Z,33.10
2019-05-22T02:37:43.127Z,31.77
2019-05-22T02:40:22.152Z,33.10
2019-05-22T02:42:52.964Z,30.73
2019-05-22T02:45:23.015Z,29.70
2019-05-22T02:47:53.508Z,30.27
2019-05-22T02:50:23.817Z,32.57
2019-05-22T02:52:54.892Z,31.83
2019-05-22T02:55:26.617Z,31.63
2019-05-22T02:57:57.987Z,31.97
2019-05-22T03:00:38.929Z,30.87
2019-05-22T03:03:09.501Z,31.03
2019-05-22T03:05:41.000Z,30.07
2019-05-22T03:08:11.861Z,29.87
2019-05-22T03:10:43.608Z,29.23
2019-05-22T03:13:14.450Z,30.10
2019-05-22T03:15:44.969Z,30.80
2019-05-22T03:18:16.520Z,29.57
2019-05-22T03:20:47.608Z,30.43
2019-05-22T03:23:37.086Z,29.97
2019-05-22T03:26:09.002Z,30.00
2019-05-22T03:28:40.526Z,29.80
2019-05-22T03:31:12.483Z,29.60
2019-05-22T03:33:43.723Z,31.43
2019-05-22T03:36:18.189Z,31.63
2019-05-22T03:38:50.184Z,31.27
2019-05-22T03:41:20.505Z,31.03
2019-05-22T03:43:52.786Z,31.87
2019-05-22T03:46:37.483Z,30.67
2019-05-22T03:49:28.106Z,31.67
2019-05-22T03:51:47.573Z,31.43
2019-05-22T03:54:18.800Z,31.40
2019-05-22T03:56:48.742Z,30.67
2019-05-22T03:59:17.603Z,30.80
2019-05-22T04:01:48.130Z,30.90
2019-05-22T04:04:35.885Z,31.17
2019-05-22T04:07:10.105Z,29.63
2019-05-22T04:09:39.849Z,31.47
2019-05-22T04:12:11.018Z,30.87
2019-05-22T04:14:41.612Z,30.63
2019-05-22T04:17:13.856Z,30.97
2019-05-22T04:19:51.189Z,29.50
2019-05-22T04:22:20.844Z,30.10
2019-05-22T04:24:51.960Z,30.33
2019-05-22T04:27:22.432Z,30.90
2019-05-22T04:29:53.702Z,30.73
2019-05-22T04:32:36.722Z,28.33
2019-05-22T04:35:11.409Z,31.60
2019-05-22T04:37:42.272Z,29.53
2019-05-22T04:40:53.762Z,30.07
2019-05-22T04:43:25.917Z,27.80
2019-05-22T04:45:56.273Z,26.73
2019-05-22T04:48:27.097Z,28.27
2019-05-22T04:51:28.374Z,29.27
2019-05-22T04:53:58.115Z,26.57
2019-05-22T04:56:29.383Z,27.97
2019-05-22T04:59:00.287Z,28.27
2019-05-22T05:01:30.338Z,26.37
2019-05-22T05:04:02.437Z,27.07
2019-05-22T05:06:35.159Z,26.90
2019-05-22T05:09:11.444Z,27.43
2019-05-22T05:11:42.445Z,27.40
2019-05-22T05:14:12.627Z,27.37
2019-05-22T05:16:45.727Z,28.07
2019-05-22T05:19:15.840Z,28.67
2019-05-22T05:21:47.421Z,27.13
2019-05-22T05:24:18.009Z,26.87
2019-05-22T05:26:48.257Z,26.30
2019-05-22T05:29:28.540Z,25.83
2019-05-22T05:31:59.723Z,25.03
2019-05-22T05:35:04.825Z,26.07
2019-05-22T05:37:34.990Z,24.43
2019-05-22T05:40:28.270Z,24.70
2019-05-22T05:42:58.449Z,25.23
2019-05-22T05:45:29.878Z,24.33
2019-05-22T05:48:03.606Z,24.13
2019-05-22T05:50:39.398Z,25.20
2019-05-22T05:53:15.082Z,24.33
2019-05-22T05:56:14.031Z,23.87
2019-05-22T05:58:44.592Z,23.37
2019-05-22T06:01:26.022Z,23.67
2019-05-22T06:03:55.409Z,23.70
2019-05-22T06:07:22.059Z,24.67
2019-05-22T06:10:30.792Z,24.67
2019-05-22T06:13:02.680Z,23.53
2019-05-22T06:16:31.334Z,21.97
2019-05-22T06:19:03.040Z,23.20
2019-05-22T06:21:32.843Z,20.03
2019-05-22T06:24:23.185Z,20.70
2019-05-22T06:27:01.721Z,21.40
2019-05-22T06:29:48.424Z,20.83
2019-05-22T06:33:30.839Z,21.37
2019-05-22T06:36:03.994Z,20.47
2019-05-22T06:38:59.052Z,21.43
2019-05-22T06:41:35.160Z,20.87
2019-05-22T06:44:32.075Z,19.77
2019-05-22T06:47:03.682Z,21.17
2019-05-22T06:49:41.243Z,21.20
2019-05-22T06:52:11.810Z,19.97
2019-05-22T06:54:41.461Z,20.50
2019-05-22T06:57:15.486Z,20.03
2019-05-22T06:59:46.986Z,20.60
2019-05-22T07:02:19.610Z,19.37
2019-05-22T07:04:51.328Z,19.40
2019-05-22T07:07:28.129Z,20.37
2019-05-22T07:09:59.754Z,19.93
2019-05-22T07:12:34.425Z,19.77
2019-05-22T07:15:33.433Z,19.87
2019-05-22T07:18:03.795Z,19.83
2019-05-22T07:20:37.626Z,21.60
2019-05-22T07:23:08.809Z,19.53
2019-05-22T07:25:41.055Z,21.17
2019-05-22T07:28:12.046Z,19.77
2019-05-22T07:30:41.431Z,19.97
2019-05-22T07:33:11.639Z,20.20
2019-05-22T07:36:04.885Z,19.67
2019-05-22T07:38:12.394Z,20.27
2019-05-22T07:40:42.028Z,20.00
2019-05-22T07:43:11.293Z,19.77
2019-05-22T07:45:40.781Z,20.20
2019-05-22T07:48:12.694Z,19.80
2019-05-22T07:50:48.848Z,19.07
2019-05-22T07:53:17.240Z,19.83
2019-05-22T07:55:51.100Z,18.53
2019-05-22T07:58:21.132Z,18.93
2019-05-22T08:00:52.604Z,18.57
2019-05-22T08:03:24.405Z,18.50
2019-05-22T08:05:57.169Z,18.37
2019-05-22T08:08:29.045Z,18.23
2019-05-22T08:10:59.351Z,17.43
2019-05-22T08:13:28.337Z,18.77
2019-05-22T08:16:00.102Z,17.93
2019-05-22T08:18:38.504Z,17.00
2019-05-22T08:21:10.438Z,17.03
2019-05-22T08:23:40.537Z,16.70
2019-05-22T08:26:14.136Z,15.97
2019-05-22T08:28:43.205Z,15.13
2019-05-22T08:31:14.668Z,14.93
2019-05-22T08:33:44.267Z,14.23
2019-05-22T08:36:13.859Z,13.43
2019-05-22T08:38:44.177Z,13.40
2019-05-22T08:41:16.447Z,13.67
2019-05-22T08:44:14.382Z,13.80
2019-05-22T08:46:17.307Z,14.03
2019-05-22T08:48:48.948Z,14.07
2019-05-22T08:51:20.858Z,14.40
2019-05-22T08:53:53.417Z,14.93
2019-05-22T08:56:24.497Z,13.90
2019-05-22T08:58:55.801Z,14.27
2019-05-22T09:01:27.998Z,14.47
2019-05-22T09:03:58.404Z,14.40
2019-05-22T09:06:29.601Z,13.97
2019-05-22T09:08:59.828Z,13.33
2019-05-22T09:11:30.022Z,13.60
2019-05-22T09:14:02.011Z,13.63
2019-05-22T09:16:31.643Z,13.67
2019-05-22T09:19:02.066Z,13.37
2019-05-22T09:21:32.259Z,13.23
2019-05-22T09:24:02.358Z,13.53
2019-05-22T09:26:31.895Z,12.73
2019-05-22T09:29:00.792Z,12.60
2019-05-22T09:31:30.300Z,13.53
2019-05-22T09:34:00.757Z,11.97
2019-05-22T09:36:31.134Z,11.70
2019-05-22T09:39:01.270Z,11.93
2019-05-22T09:41:31.293Z,12.63
2019-05-22T09:44:01.590Z,11.27
2019-05-22T09:46:34.130Z,11.33
2019-05-22T09:49:07.176Z,11.53
2019-05-22T09:51:38.105Z,10.50
2019-05-22T09:54:09.133Z,10.07
2019-05-22T09:56:39.786Z,10.37
2019-05-22T09:59:11.228Z,9.60
2019-05-22T10:01:42.046Z,10.27
2019-05-22T10:04:13.036Z,9.87
2019-05-22T10:06:43.464Z,10.00
2019-05-22T10:09:14.417Z,9.70
2019-05-22T10:11:48.450Z,9.50
2019-05-22T10:14:19.887Z,9.07
2019-05-22T10:16:50.282Z,8.67
2019-05-22T10:19:20.530Z,9.00
2019-05-22T10:21:51.043Z,9.03
2019-05-22T10:24:21.809Z,9.10
2019-05-22T10:26:52.462Z,9.30
2019-05-22T10:29:21.624Z,9.27
2019-05-22T10:31:50.719Z,9.10
2019-05-22T10:34:19.793Z,9.10
2019-05-22T10:36:50.152Z,9.07
2019-05-22T10:39:24.715Z,8.97
2019-05-22T10:41:54.544Z,9.40
2019-05-22T10:44:24.220Z,9.57
2019-05-22T10:46:55.076Z,9.50
2019-05-22T10:49:24.773Z,10.03
2019-05-22T10:51:54.781Z,9.33
2019-05-22T10:54:24.553Z,9.07
2019-05-22T10:56:54.645Z,9.33
2019-05-22T10:59:24.074Z,10.27
2019-05-22T11:01:52.997Z,8.70
2019-05-22T11:04:23.950Z,8.60
2019-05-22T11:06:55.478Z,7.97
2019-05-22T11:09:24.760Z,8.53
2019-05-22T11:11:55.397Z,8.67
2019-05-22T11:14:25.834Z,8.73
2019-05-22T11:16:57.223Z,8.90
2019-05-22T11:19:27.314Z,8.03
2019-05-22T11:21:58.217Z,8.27
2019-05-22T11:24:28.515Z,8.60
2019-05-22T11:26:57.939Z,7.97
2019-05-22T11:29:30.547Z,9.03
2019-05-22T11:31:59.063Z,8.80
2019-05-22T11:34:29.421Z,8.30
2019-05-22T11:37:00.100Z,7.40
2019-05-22T11:39:38.735Z,7.37
2019-05-22T11:42:02.303Z,7.27
2019-05-22T11:44:32.557Z,7.40
2019-05-22T11:47:04.687Z,6.87
2019-05-22T11:49:36.382Z,5.77
2019-05-22T11:52:08.589Z,6.83
2019-05-22T11:54:43.463Z,7.63
2019-05-22T11:57:14.117Z,8.33
2019-05-22T11:59:43.619Z,9.50
2019-05-22T12:02:14.536Z,9.83
2019-05-22T12:04:47.714Z,10.23
2019-05-22T12:07:16.758Z,10.50
2019-05-22T12:09:47.083Z,9.70
2019-05-22T12:12:17.371Z,9.70
2019-05-22T12:14:46.351Z,8.83
2019-05-22T12:17:15.163Z,7.30
2019-05-22T12:19:45.701Z,6.53
2019-05-22T12:22:14.916Z,6.90
2019-05-22T12:24:44.280Z,6.43
2019-05-22T12:27:13.501Z,6.80
2019-05-22T12:29:42.512Z,6.53
2019-05-22T12:32:11.567Z,6.40
2019-05-22T12:34:40.727Z,6.60
2019-05-22T12:37:09.144Z,6.27
2019-05-22T12:39:39.010Z,6.13
2019-05-22T12:42:09.610Z,5.40
2019-05-22T12:44:38.477Z,5.80
2019-05-22T12:47:08.567Z,6.10
2019-05-22T12:49:37.802Z,5.63
2019-05-22T12:52:09.142Z,6.83
2019-05-22T12:54:46.836Z,6.53
2019-05-22T12:57:11.355Z,7.07
2019-05-22T12:59:40.374Z,6.47
2019-05-22T13:02:10.230Z,6.50
2019-05-22T13:04:39.922Z,7.30
2019-05-22T13:07:09.343Z,7.53
2019-05-22T13:09:40.152Z,6.90
2019-05-22T13:12:09.522Z,6.63
2019-05-22T13:14:40.706Z,6.47
2019-05-22T13:17:12.189Z,6.27
2019-05-22T13:19:43.207Z,5.63
2019-05-22T13:22:16.159Z,6.13
2019-05-22T13:24:49.422Z,6.43
2019-05-22T13:27:21.817Z,7.00
2019-05-22T13:29:53.150Z,7.27
2019-05-22T13:32:25.009Z,6.67
2019-05-22T13:34:55.914Z,6.20
2019-05-22T13:37:26.621Z,6.57
2019-05-22T13:39:56.888Z,6.70
2019-05-22T13:42:28.180Z,6.07
2019-05-22T13:44:58.963Z,5.87
2019-05-22T13:47:31.159Z,6.00
2019-05-22T13:50:02.071Z,6.30
2019-05-22T13:52:33.946Z,5.90
2019-05-22T13:55:05.298Z,5.17
2019-05-22T13:57:36.210Z,5.83
2019-05-22T14:00:09.546Z,6.20
2019-05-22T14:02:40.693Z,5.50
2019-05-22T14:05:13.862Z,6.30
2019-05-22T14:07:44.206Z,5.70
2019-05-22T14:10:15.423Z,4.97
2019-05-22T14:12:46.711Z,5.67
2019-05-22T14:15:18.427Z,4.50
2019-05-22T14:17:49.173Z,4.80
2019-05-22T14:20:21.359Z,4.97
2019-05-22T14:22:56.700Z,5.10
2019-05-22T14:25:30.207Z,4.87
2019-05-22T14:28:01.460Z,4.23
2019-05-22T14:30:32.154Z,4.17
2019-05-22T14:33:05.140Z,4.00
2019-05-22T14:35:48.354Z,3.60
2019-05-22T14:38:13.011Z,4.00
2019-05-22T14:40:43.436Z,3.73
2019-05-22T14:43:13.990Z,4.00
2019-05-22T14:45:45.919Z,3.67
2019-05-22T14:48:16.845Z,3.63
2019-05-22T14:50:49.588Z,3.60
2019-05-22T14:53:20.540Z,4.00
2019-05-22T14:55:51.596Z,4.20
2019-05-22T14:58:23.045Z,4.30
2019-05-22T15:00:54.310Z,4.77
2019-05-22T15:03:25.092Z,4.60
2019-05-22T15:05:56.012Z,4.37
2019-05-22T15:08:26.609Z,5.17
2019-05-22T15:10:57.768Z,4.83
2019-05-22T15:13:28.945Z,4.70
2019-05-22T15:16:00.544Z,4.70
2019-05-22T15:18:31.025Z,4.90
2019-05-22T15:21:07.628Z,4.33
2019-05-22T15:23:39.022Z,4.63
2019-05-22T15:26:09.577Z,4.67
2019-05-22T15:28:40.475Z,4.17
2019-05-22T15:31:12.030Z,4.37
2019-05-22T15:33:43.255Z,4.07
2019-05-22T15:36:16.310Z,4.40
2019-05-22T15:38:47.936Z,4.60
2019-05-22T15:41:19.278Z,4.60
2019-05-22T15:43:53.049Z,4.87
2019-05-22T15:46:24.838Z,4.43
2019-05-22T15:48:56.211Z,4.53
2019-05-22T15:51:34.731Z,4.57
2019-05-22T15:54:09.875Z,4.83
2019-05-22T15:56:41.190Z,5.63
2019-05-22T15:59:13.142Z,5.00
2019-05-22T16:01:45.161Z,4.90
2019-05-22T16:04:19.757Z,5.70
2019-05-22T16:06:51.595Z,5.30
2019-05-22T16:09:24.445Z,5.00
2019-05-22T16:11:55.771Z,5.07
2019-05-22T16:14:30.521Z,4.20
2019-05-22T16:17:03.276Z,4.43
2019-05-22T16:19:35.642Z,4.70
2019-05-22T16:22:07.709Z,4.47
2019-05-22T16:24:39.295Z,4.00
2019-05-22T16:27:14.307Z,4.33
2019-05-22T16:29:45.419Z,4.53
2019-05-22T16:32:18.322Z,5.50
2019-05-22T16:34:48.978Z,4.50
2019-05-22T16:37:21.493Z,7.03
2019-05-22T16:39:51.978Z,5.40
2019-05-22T16:42:22.563Z,4.10
2019-05-22T16:44:54.587Z,4.30
2019-05-22T16:47:25.471Z,4.00
2019-05-22T16:49:55.713Z,4.00
2019-05-22T16:52:28.433Z,3.87
2019-05-22T16:54:59.147Z,3.90
2019-05-22T16:57:31.160Z,4.20
2019-05-22T17:00:03.235Z,3.70
2019-05-22T17:02:35.849Z,3.87
2019-05-22T17:05:09.400Z,3.73
2019-05-22T17:07:40.712Z,3.83
2019-05-22T17:10:13.569Z,3.77
2019-05-22T17:12:45.754Z,4.17
2019-05-22T17:15:18.851Z,4.23
2019-05-22T17:17:50.017Z,3.83
2019-05-22T17:20:21.872Z,3.80
2019-05-22T17:22:53.975Z,4.07
2019-05-22T17:25:27.395Z,4.00
2019-05-22T17:27:58.372Z,3.73
2019-05-22T17:30:28.223Z,4.63
2019-05-22T17:32:57.861Z,4.40
2019-05-22T17:35:28.979Z,4.00
2019-05-22T17:37:59.652Z,4.37
2019-05-22T17:40:28.669Z,4.23
2019-05-22T17:43:01.351Z,4.20
2019-05-22T17:45:32.203Z,3.97
2019-05-22T17:48:03.830Z,4.30
2019-05-22T17:50:35.686Z,4.33
2019-05-22T17:53:06.525Z,4.10
2019-05-22T17:55:38.208Z,4.70
2019-05-22T17:58:09.368Z,4.60
2019-05-22T18:00:42.441Z,4.70
2019-05-22T18:03:13.924Z,4.53
2019-05-22T18:05:45.180Z,4.47
2019-05-22T18:08:16.262Z,5.00
2019-05-22T18:10:49.267Z,4.80
2019-05-22T18:13:20.481Z,4.47
2019-05-22T18:15:51.249Z,4.90
2019-05-22T18:18:22.581Z,4.50
2019-05-22T18:20:53.171Z,4.17
2019-05-22T18:23:24.178Z,4.80
2019-05-22T18:25:54.358Z,4.63
2019-05-22T18:28:25.166Z,4.13
2019-05-22T18:30:56.102Z,4.60
2019-05-22T18:33:27.566Z,4.43
2019-05-22T18:35:57.674Z,5.90
2019-05-22T18:38:29.943Z,7.23
2019-05-22T18:41:01.776Z,5.10
2019-05-22T18:43:34.869Z,4.40
2019-05-22T18:46:06.720Z,4.97
2019-05-22T18:48:38.564Z,5.17
2019-05-22T18:51:09.695Z,5.13
2019-05-22T18:53:40.386Z,4.70
2019-05-22T18:56:12.661Z,5.20
2019-05-22T18:58:44.280Z,4.77
2019-05-22T19:01:16.413Z,4.90
2019-05-22T19:03:45.834Z,5.23
2019-05-22T19:06:29.648Z,5.40
2019-05-22T19:08:49.799Z,5.27
2019-05-22T19:11:20.067Z,5.60
2019-05-22T19:13:50.347Z,5.50
2019-05-22T19:16:21.926Z,5.73
2019-05-22T19:18:53.517Z,5.73
2019-05-22T19:21:24.255Z,6.07
2019-05-22T19:23:54.583Z,6.50
2019-05-22T19:26:25.060Z,6.60
2019-05-22T19:28:55.792Z,5.80
2019-05-22T19:31:27.009Z,6.47
2019-05-22T19:33:57.471Z,5.80
2019-05-22T19:36:27.917Z,6.10
2019-05-22T19:38:58.465Z,6.23
2019-05-22T19:41:29.352Z,7.60
2019-05-22T19:44:00.122Z,7.83
2019-05-22T19:46:30.948Z,6.70
2019-05-22T19:49:01.674Z,7.80
2019-05-22T19:51:33.090Z,7.83
2019-05-22T19:54:05.007Z,6.90
2019-05-22T19:56:37.563Z,7.90
2019-05-22T19:59:08.908Z,7.47
2019-05-22T20:01:40.106Z,8.60
2019-05-22T20:04:10.974Z,12.60
2019-05-22T20:06:42.687Z,10.63
2019-05-22T20:09:13.658Z,9.80
2019-05-22T20:11:43.896Z,8.63
2019-05-22T20:14:14.272Z,8.20
2019-05-22T20:16:45.070Z,8.13
2019-05-22T20:19:15.636Z,7.97
2019-05-22T20:21:47.748Z,8.70
2019-05-22T20:24:18.243Z,8.20
2019-05-22T20:26:48.996Z,9.17
2019-05-22T20:29:19.684Z,9.93
2019-05-22T20:31:50.316Z,9.60
2019-05-22T20:34:20.448Z,9.50
2019-05-22T20:36:50.279Z,9.60
2019-05-22T20:39:20.857Z,10.30
2019-05-22T20:41:51.418Z,10.80
2019-05-22T20:44:22.180Z,10.53
2019-05-22T20:46:53.845Z,10.27
2019-05-22T20:49:26.086Z,10.83
2019-05-22T20:51:56.254Z,10.10
2019-05-22T20:54:26.010Z,10.23
2019-05-22T20:56:56.301Z,9.67
2019-05-22T20:59:26.968Z,9.87
2019-05-22T21:01:58.781Z,9.57
2019-05-22T21:04:32.711Z,9.53
2019-05-22T21:07:07.112Z,9.23
2019-05-22T21:09:38.095Z,10.80
2019-05-22T21:12:10.299Z,10.77
2019-05-22T21:14:40.999Z,10.80
2019-05-22T21:17:11.559Z,11.03
2019-05-22T21:19:42.623Z,9.97
2019-05-22T21:22:18.896Z,10.40
2019-05-22T21:24:50.190Z,10.43
2019-05-22T21:27:21.636Z,11.07
2019-05-22T21:29:52.283Z,11.30
2019-05-22T21:32:23.309Z,11.57
2019-05-22T21:34:53.309Z,11.20
2019-05-22T21:37:23.235Z,12.73
2019-05-22T21:39:52.432Z,11.33
2019-05-22T21:42:21.606Z,11.10
2019-05-22T21:44:51.866Z,11.93
2019-05-22T21:47:21.237Z,11.67
2019-05-22T21:49:51.735Z,12.97
2019-05-22T21:52:21.827Z,11.73
2019-05-22T21:54:53.018Z,12.60
2019-05-22T21:57:22.107Z,12.63
2019-05-22T21:59:52.994Z,12.63
2019-05-22T22:02:32.307Z,12.63
2019-05-22T22:05:02.004Z,12.07
2019-05-22T22:07:32.833Z,12.47
2019-05-22T22:10:06.200Z,12.63
2019-05-22T22:12:39.219Z,13.00
2019-05-22T22:15:12.442Z,12.90
2019-05-22T22:17:43.455Z,12.20
2019-05-22T22:20:15.041Z,11.97
2019-05-22T22:22:45.537Z,11.53
2019-05-22T22:25:17.673Z,12.27
2019-05-22T22:27:48.228Z,12.60
2019-05-22T22:30:33.919Z,11.83
2019-05-22T22:33:08.780Z,11.27
2019-05-22T22:35:41.298Z,11.53
2019-05-22T22:38:12.215Z,11.27
2019-05-22T22:40:43.362Z,12.00
2019-05-22T22:43:14.865Z,11.57
2019-05-22T22:45:55.921Z,11.93
2019-05-22T22:48:32.315Z,12.47
2019-05-22T22:51:09.109Z,11.23
2019-05-22T22:53:41.681Z,11.87
2019-05-22T22:56:13.026Z,12.10
2019-05-22T22:58:44.067Z,12.13
2019-05-22T23:01:23.046Z,11.93
2019-05-22T23:03:56.498Z,11.97
2019-05-22T23:06:27.715Z,12.67
2019-05-22T23:08:59.112Z,13.03
2019-05-22T23:11:30.028Z,12.93
2019-05-22T23:14:01.862Z,12.50
2019-05-22T23:16:32.552Z,12.50
2019-05-22T23:19:44.237Z,13.60
2019-05-22T23:22:19.946Z,13.17
2019-05-22T23:24:53.265Z,12.30
2019-05-22T23:27:24.719Z,11.93
2019-05-22T23:29:56.370Z,12.97
2019-05-22T23:32:28.270Z,14.47
2019-05-22T23:34:59.043Z,13.47
2019-05-22T23:37:29.861Z,13.23
2019-05-22T23:40:01.790Z,13.20
2019-05-22T23:42:37.862Z,13.20
2019-05-22T23:45:12.215Z,13.27
2019-05-22T23:48:16.540Z,13.30
2019-05-22T23:50:47.679Z,11.93
2019-05-22T23:53:18.219Z,13.40
2019-05-22T23:55:48.011Z,12.53
2019-05-22T23:58:19.339Z,12.20
